sensor_id;sensor_type;location;lat;lon;timestamp;P1;durP1;ratioP1;P2;durP2;ratioP2
21424;SDS011;10873;51.132;16.848;2023-10-09T00:01:44;5.15;;;3.60;;
21424;SDS011;10873;51.132;16.848;2023-10-09T00:04:11;5.07;;;3.42;;
21424;SDS011;10873;51.132;16.848;2023-10-09T00:06:46;5.05;;;3.80;;
21424;SDS011;10873;51.132;16.848;2023-10-09T00:09:12;5.22;;;3.70;;
21424;SDS011;10873;51.132;16.848;2023-10-09T00:11:44;6.63;;;3.88;;
21424;SDS011;10873;51.132;16.848;2023-10-09T00:14:19;6.32;;;3.80;;
21424;SDS011;10873;51.132;16.848;2023-10-09T00:16:48;5.95;;;3.97;;
21424;SDS011;10873;51.132;16.848;2023-10-09T00:19:14;5.72;;;3.95;;
21424;SDS011;10873;51.132;16.848;2023-10-09T00:21:46;6.15;;;4.00;;
21424;SDS011;10873;51.132;16.848;2023-10-09T00:24:12;6.10;;;4.00;;
21424;SDS011;10873;51.132;16.848;2023-10-09T00:26:39;5.63;;;3.60;;
21424;SDS011;10873;51.132;16.848;2023-10-09T00:29:10;6.15;;;3.92;;
21424;SDS011;10873;51.132;16.848;2023-10-09T00:31:51;6.38;;;4.13;;
21424;SDS011;10873;51.132;16.848;2023-10-09T00:34:28;5.80;;;3.70;;
21424;SDS011;10873;51.132;16.848;2023-10-09T00:36:55;6.68;;;3.88;;
21424;SDS011;10873;51.132;16.848;2023-10-09T00:39:23;10.07;;;3.65;;
21424;SDS011;10873;51.132;16.848;2023-10-09T00:42:04;6.65;;;4.03;;
21424;SDS011;10873;51.132;16.848;2023-10-09T00:44:32;10.52;;;4.40;;
21424;SDS011;10873;51.132;16.848;2023-10-09T00:47:10;6.72;;;3.72;;
21424;SDS011;10873;51.132;16.848;2023-10-09T00:49:47;4.90;;;3.38;;
21424;SDS011;10873;51.132;16.848;2023-10-09T00:52:26;5.30;;;3.35;;
21424;SDS011;10873;51.132;16.848;2023-10-09T00:54:58;5.40;;;3.55;;
21424;SDS011;10873;51.132;16.848;2023-10-09T01:00:15;6.30;;;3.60;;
21424;SDS011;10873;51.132;16.848;2023-10-09T01:03:03;5.07;;;3.55;;
21424;SDS011;10873;51.132;16.848;2023-10-09T01:06:07;6.22;;;4.07;;
21424;SDS011;10873;51.132;16.848;2023-10-09T01:08:34;5.53;;;3.58;;
21424;SDS011;10873;51.132;16.848;2023-10-09T01:11:06;6.18;;;3.70;;
21424;SDS011;10873;51.132;16.848;2023-10-09T01:13:36;6.53;;;3.72;;
21424;SDS011;10873;51.132;16.848;2023-10-09T01:16:12;5.65;;;3.28;;
21424;SDS011;10873;51.132;16.848;2023-10-09T01:18:42;6.25;;;3.83;;
21424;SDS011;10873;51.132;16.848;2023-10-09T01:21:09;5.05;;;3.45;;
21424;SDS011;10873;51.132;16.848;2023-10-09T01:23:42;5.82;;;3.92;;
21424;SDS011;10873;51.132;16.848;2023-10-09T01:26:24;5.25;;;3.60;;
21424;SDS011;10873;51.132;16.848;2023-10-09T01:28:50;8.00;;;3.83;;
21424;SDS011;10873;51.132;16.848;2023-10-09T01:31:16;5.45;;;3.63;;
21424;SDS011;10873;51.132;16.848;2023-10-09T01:33:46;6.97;;;3.70;;
21424;SDS011;10873;51.132;16.848;2023-10-09T01:36:12;5.80;;;3.85;;
21424;SDS011;10873;51.132;16.848;2023-10-09T01:38:42;6.10;;;3.78;;
21424;SDS011;10873;51.132;16.848;2023-10-09T01:41:11;5.35;;;3.42;;
21424;SDS011;10873;51.132;16.848;2023-10-09T01:43:41;5.93;;;3.88;;
21424;SDS011;10873;51.132;16.848;2023-10-09T01:46:10;6.30;;;3.28;;
21424;SDS011;10873;51.132;16.848;2023-10-09T01:48:36;5.18;;;3.80;;
21424;SDS011;10873;51.132;16.848;2023-10-09T01:51:05;5.50;;;3.40;;
21424;SDS011;10873;51.132;16.848;2023-10-09T01:53:31;7.07;;;3.80;;
21424;SDS011;10873;51.132;16.848;2023-10-09T01:56:09;5.57;;;3.90;;
21424;SDS011;10873;51.132;16.848;2023-10-09T01:58:55;5.57;;;3.70;;
21424;SDS011;10873;51.132;16.848;2023-10-09T02:01:27;5.65;;;3.72;;
21424;SDS011;10873;51.132;16.848;2023-10-09T02:03:57;4.50;;;3.20;;
21424;SDS011;10873;51.132;16.848;2023-10-09T02:06:30;6.38;;;3.72;;
21424;SDS011;10873;51.132;16.848;2023-10-09T02:08:57;6.45;;;3.53;;
21424;SDS011;10873;51.132;16.848;2023-10-09T02:11:26;5.32;;;3.85;;
21424;SDS011;10873;51.132;16.848;2023-10-09T02:14:10;5.30;;;4.07;;
21424;SDS011;10873;51.132;16.848;2023-10-09T02:16:46;6.38;;;3.55;;
21424;SDS011;10873;51.132;16.848;2023-10-09T02:19:28;5.45;;;3.40;;
21424;SDS011;10873;51.132;16.848;2023-10-09T02:22:03;6.97;;;3.63;;
21424;SDS011;10873;51.132;16.848;2023-10-09T02:24:38;5.38;;;3.47;;
21424;SDS011;10873;51.132;16.848;2023-10-09T02:27:28;7.75;;;4.05;;
21424;SDS011;10873;51.132;16.848;2023-10-09T02:30:11;5.63;;;3.38;;
21424;SDS011;10873;51.132;16.848;2023-10-09T02:32:41;5.88;;;3.80;;
21424;SDS011;10873;51.132;16.848;2023-10-09T02:35:09;5.22;;;3.45;;
21424;SDS011;10873;51.132;16.848;2023-10-09T02:37:45;5.45;;;3.33;;
21424;SDS011;10873;51.132;16.848;2023-10-09T02:40:12;5.78;;;3.35;;
21424;SDS011;10873;51.132;16.848;2023-10-09T02:42:49;5.78;;;3.78;;
21424;SDS011;10873;51.132;16.848;2023-10-09T02:45:15;5.20;;;3.40;;
21424;SDS011;10873;51.132;16.848;2023-10-09T02:47:44;5.15;;;3.20;;
21424;SDS011;10873;51.132;16.848;2023-10-09T02:50:14;5.30;;;3.70;;
21424;SDS011;10873;51.132;16.848;2023-10-09T02:52:48;4.68;;;3.20;;
21424;SDS011;10873;51.132;16.848;2023-10-09T02:55:34;4.47;;;3.33;;
21424;SDS011;10873;51.132;16.848;2023-10-09T02:58:05;5.15;;;3.15;;
21424;SDS011;10873;51.132;16.848;2023-10-09T03:00:32;4.95;;;3.17;;
21424;SDS011;10873;51.132;16.848;2023-10-09T03:03:01;4.60;;;3.10;;
21424;SDS011;10873;51.132;16.848;2023-10-09T03:05:32;4.32;;;3.13;;
21424;SDS011;10873;51.132;16.848;2023-10-09T03:07:58;4.75;;;3.00;;
21424;SDS011;10873;51.132;16.848;2023-10-09T03:10:24;3.90;;;2.78;;
21424;SDS011;10873;51.132;16.848;2023-10-09T03:12:50;5.72;;;2.88;;
21424;SDS011;10873;51.132;16.848;2023-10-09T03:15:21;4.35;;;3.10;;
21424;SDS011;10873;51.132;16.848;2023-10-09T03:17:47;5.55;;;2.70;;
21424;SDS011;10873;51.132;16.848;2023-10-09T03:20:14;5.10;;;2.70;;
21424;SDS011;10873;51.132;16.848;2023-10-09T03:22:43;4.63;;;2.80;;
21424;SDS011;10873;51.132;16.848;2023-10-09T03:25:10;3.85;;;2.65;;
21424;SDS011;10873;51.132;16.848;2023-10-09T03:27:39;4.05;;;2.80;;
21424;SDS011;10873;51.132;16.848;2023-10-09T03:30:08;3.58;;;2.72;;
21424;SDS011;10873;51.132;16.848;2023-10-09T03:32:37;5.03;;;2.83;;
21424;SDS011;10873;51.132;16.848;2023-10-09T03:35:04;3.90;;;2.53;;
21424;SDS011;10873;51.132;16.848;2023-10-09T03:37:32;4.45;;;2.53;;
21424;SDS011;10873;51.132;16.848;2023-10-09T03:40:01;3.88;;;2.45;;
21424;SDS011;10873;51.132;16.848;2023-10-09T03:42:27;2.83;;;2.08;;
21424;SDS011;10873;51.132;16.848;2023-10-09T03:44:55;3.53;;;2.40;;
21424;SDS011;10873;51.132;16.848;2023-10-09T03:47:23;3.50;;;2.65;;
21424;SDS011;10873;51.132;16.848;2023-10-09T03:49:51;3.55;;;2.30;;
21424;SDS011;10873;51.132;16.848;2023-10-09T03:52:18;5.20;;;2.40;;
21424;SDS011;10873;51.132;16.848;2023-10-09T03:54:45;3.90;;;2.50;;
21424;SDS011;10873;51.132;16.848;2023-10-09T03:57:11;4.25;;;2.45;;
21424;SDS011;10873;51.132;16.848;2023-10-09T03:59:43;3.30;;;2.25;;
21424;SDS011;10873;51.132;16.848;2023-10-09T04:02:12;3.70;;;2.53;;
21424;SDS011;10873;51.132;16.848;2023-10-09T04:04:38;2.95;;;1.92;;
21424;SDS011;10873;51.132;16.848;2023-10-09T04:07:05;6.22;;;2.20;;
21424;SDS011;10873;51.132;16.848;2023-10-09T04:09:32;3.90;;;2.38;;
21424;SDS011;10873;51.132;16.848;2023-10-09T04:12:04;3.55;;;2.33;;
21424;SDS011;10873;51.132;16.848;2023-10-09T04:14:37;4.55;;;2.42;;
21424;SDS011;10873;51.132;16.848;2023-10-09T04:17:14;2.60;;;1.98;;
21424;SDS011;10873;51.132;16.848;2023-10-09T04:19:55;3.05;;;2.15;;
21424;SDS011;10873;51.132;16.848;2023-10-09T04:22:41;5.13;;;2.20;;
21424;SDS011;10873;51.132;16.848;2023-10-09T04:25:16;3.28;;;2.03;;
21424;SDS011;10873;51.132;16.848;2023-10-09T04:27:51;3.17;;;2.17;;
21424;SDS011;10873;51.132;16.848;2023-10-09T04:30:18;2.88;;;2.22;;
21424;SDS011;10873;51.132;16.848;2023-10-09T04:32:44;3.60;;;2.20;;
21424;SDS011;10873;51.132;16.848;2023-10-09T04:35:11;3.45;;;2.00;;
21424;SDS011;10873;51.132;16.848;2023-10-09T04:37:51;3.88;;;2.10;;
21424;SDS011;10873;51.132;16.848;2023-10-09T04:40:17;2.75;;;2.00;;
21424;SDS011;10873;51.132;16.848;2023-10-09T04:43:02;3.40;;;2.00;;
21424;SDS011;10873;51.132;16.848;2023-10-09T04:45:35;4.65;;;2.83;;
21424;SDS011;10873;51.132;16.848;2023-10-09T04:48:19;3.78;;;2.35;;
21424;SDS011;10873;51.132;16.848;2023-10-09T04:50:58;4.53;;;2.40;;
21424;SDS011;10873;51.132;16.848;2023-10-09T04:53:43;3.60;;;2.45;;
21424;SDS011;10873;51.132;16.848;2023-10-09T04:56:15;4.18;;;2.05;;
21424;SDS011;10873;51.132;16.848;2023-10-09T04:58:41;10.63;;;2.70;;
21424;SDS011;10873;51.132;16.848;2023-10-09T05:01:09;13.60;;;3.35;;
21424;SDS011;10873;51.132;16.848;2023-10-09T05:03:39;19.80;;;3.25;;
21424;SDS011;10873;51.132;16.848;2023-10-09T05:06:06;13.40;;;3.70;;
21424;SDS011;10873;51.132;16.848;2023-10-09T05:08:52;15.43;;;3.75;;
21424;SDS011;10873;51.132;16.848;2023-10-09T05:11:21;16.00;;;3.85;;
21424;SDS011;10873;51.132;16.848;2023-10-09T05:14:18;16.42;;;4.10;;
21424;SDS011;10873;51.132;16.848;2023-10-09T05:16:52;18.83;;;3.70;;
21424;SDS011;10873;51.132;16.848;2023-10-09T05:19:26;22.42;;;3.58;;
21424;SDS011;10873;51.132;16.848;2023-10-09T05:22:08;11.20;;;3.70;;
21424;SDS011;10873;51.132;16.848;2023-10-09T05:24:52;14.05;;;3.75;;
21424;SDS011;10873;51.132;16.848;2023-10-09T05:27:20;11.32;;;4.10;;
21424;SDS011;10873;51.132;16.848;2023-10-09T05:30:06;13.73;;;3.25;;
21424;SDS011;10873;51.132;16.848;2023-10-09T05:32:52;9.75;;;3.63;;
21424;SDS011;10873;51.132;16.848;2023-10-09T05:35:23;12.05;;;3.50;;
21424;SDS011;10873;51.132;16.848;2023-10-09T05:38:08;12.57;;;4.07;;
21424;SDS011;10873;51.132;16.848;2023-10-09T05:40:50;12.95;;;3.83;;
21424;SDS011;10873;51.132;16.848;2023-10-09T05:43:20;12.38;;;3.55;;
21424;SDS011;10873;51.132;16.848;2023-10-09T05:46:05;8.30;;;3.90;;
21424;SDS011;10873;51.132;16.848;2023-10-09T05:48:38;7.80;;;3.22;;
21424;SDS011;10873;51.132;16.848;2023-10-09T05:51:04;9.18;;;3.65;;
21424;SDS011;10873;51.132;16.848;2023-10-09T05:53:56;12.63;;;4.15;;
21424;SDS011;10873;51.132;16.848;2023-10-09T05:56:50;12.25;;;3.50;;
21424;SDS011;10873;51.132;16.848;2023-10-09T05:59:45;10.43;;;3.90;;
21424;SDS011;10873;51.132;16.848;2023-10-09T06:02:30;11.85;;;4.43;;
21424;SDS011;10873;51.132;16.848;2023-10-09T06:05:25;13.85;;;3.35;;
21424;SDS011;10873;51.132;16.848;2023-10-09T06:08:07;25.67;;;4.78;;
21424;SDS011;10873;51.132;16.848;2023-10-09T06:10:38;17.10;;;3.95;;
21424;SDS011;10873;51.132;16.848;2023-10-09T06:13:08;27.45;;;4.47;;
21424;SDS011;10873;51.132;16.848;2023-10-09T06:15:54;27.55;;;4.53;;
21424;SDS011;10873;51.132;16.848;2023-10-09T06:18:44;18.00;;;3.65;;
21424;SDS011;10873;51.132;16.848;2023-10-09T06:21:33;14.77;;;4.30;;
21424;SDS011;10873;51.132;16.848;2023-10-09T06:24:17;12.40;;;4.10;;
21424;SDS011;10873;51.132;16.848;2023-10-09T06:26:45;22.33;;;4.35;;
21424;SDS011;10873;51.132;16.848;2023-10-09T06:29:25;13.35;;;3.83;;
21424;SDS011;10873;51.132;16.848;2023-10-09T06:32:09;16.40;;;3.25;;
21424;SDS011;10873;51.132;16.848;2023-10-09T06:34:45;7.85;;;3.28;;
21424;SDS011;10873;51.132;16.848;2023-10-09T06:37:20;7.53;;;3.45;;
21424;SDS011;10873;51.132;16.848;2023-10-09T06:39:50;18.50;;;4.07;;
21424;SDS011;10873;51.132;16.848;2023-10-09T06:42:37;12.20;;;3.65;;
21424;SDS011;10873;51.132;16.848;2023-10-09T06:45:06;9.13;;;3.55;;
21424;SDS011;10873;51.132;16.848;2023-10-09T06:47:41;7.60;;;3.20;;
21424;SDS011;10873;51.132;16.848;2023-10-09T06:50:18;9.70;;;3.20;;
21424;SDS011;10873;51.132;16.848;2023-10-09T06:52:48;9.70;;;3.45;;
21424;SDS011;10873;51.132;16.848;2023-10-09T06:55:43;7.88;;;2.95;;
21424;SDS011;10873;51.132;16.848;2023-10-09T06:58:27;8.18;;;3.05;;
21424;SDS011;10873;51.132;16.848;2023-10-09T07:00:54;12.40;;;3.45;;
21424;SDS011;10873;51.132;16.848;2023-10-09T07:03:23;11.07;;;3.22;;
21424;SDS011;10873;51.132;16.848;2023-10-09T07:06:02;9.18;;;3.17;;
21424;SDS011;10873;51.132;16.848;2023-10-09T07:08:30;11.57;;;3.30;;
21424;SDS011;10873;51.132;16.848;2023-10-09T07:11:02;7.78;;;3.30;;
21424;SDS011;10873;51.132;16.848;2023-10-09T07:14:07;11.57;;;3.10;;
21424;SDS011;10873;51.132;16.848;2023-10-09T07:16:35;8.95;;;3.05;;
21424;SDS011;10873;51.132;16.848;2023-10-09T07:19:04;10.68;;;3.58;;
21424;SDS011;10873;51.132;16.848;2023-10-09T07:21:56;8.27;;;3.15;;
21424;SDS011;10873;51.132;16.848;2023-10-09T07:24:28;8.98;;;3.42;;
21424;SDS011;10873;51.132;16.848;2023-10-09T07:27:03;10.23;;;3.55;;
21424;SDS011;10873;51.132;16.848;2023-10-09T07:29:38;8.00;;;3.15;;
21424;SDS011;10873;51.132;16.848;2023-10-09T07:32:17;7.60;;;3.05;;
21424;SDS011;10873;51.132;16.848;2023-10-09T07:34:47;9.30;;;3.85;;
21424;SDS011;10873;51.132;16.848;2023-10-09T07:40:16;9.82;;;3.28;;
21424;SDS011;10873;51.132;16.848;2023-10-09T07:42:47;7.47;;;3.22;;
21424;SDS011;10873;51.132;16.848;2023-10-09T07:45:30;8.05;;;3.03;;
21424;SDS011;10873;51.132;16.848;2023-10-09T07:48:05;9.30;;;3.20;;
21424;SDS011;10873;51.132;16.848;2023-10-09T07:50:51;6.60;;;2.92;;
21424;SDS011;10873;51.132;16.848;2023-10-09T07:53:23;8.57;;;3.03;;
21424;SDS011;10873;51.132;16.848;2023-10-09T07:55:52;6.15;;;3.15;;
21424;SDS011;10873;51.132;16.848;2023-10-09T07:58:34;6.65;;;3.03;;
21424;SDS011;10873;51.132;16.848;2023-10-09T08:01:11;6.88;;;3.08;;
21424;SDS011;10873;51.132;16.848;2023-10-09T08:03:43;5.63;;;2.58;;
21424;SDS011;10873;51.132;16.848;2023-10-09T08:06:12;7.68;;;3.03;;
21424;SDS011;10873;51.132;16.848;2023-10-09T08:08:58;6.20;;;2.75;;
21424;SDS011;10873;51.132;16.848;2023-10-09T08:11:29;7.35;;;2.63;;
21424;SDS011;10873;51.132;16.848;2023-10-09T08:14:10;5.80;;;2.42;;
21424;SDS011;10873;51.132;16.848;2023-10-09T08:17:06;6.85;;;2.60;;
21424;SDS011;10873;51.132;16.848;2023-10-09T08:19:47;5.38;;;2.80;;
21424;SDS011;10873;51.132;16.848;2023-10-09T08:22:26;4.22;;;2.50;;
21424;SDS011;10873;51.132;16.848;2023-10-09T08:24:58;4.93;;;2.70;;
21424;SDS011;10873;51.132;16.848;2023-10-09T08:27:24;6.88;;;2.88;;
21424;SDS011;10873;51.132;16.848;2023-10-09T08:29:59;4.03;;;2.40;;
21424;SDS011;10873;51.132;16.848;2023-10-09T08:32:42;6.35;;;2.88;;
21424;SDS011;10873;51.132;16.848;2023-10-09T08:35:13;5.68;;;2.47;;
21424;SDS011;10873;51.132;16.848;2023-10-09T08:38:04;5.38;;;2.40;;
21424;SDS011;10873;51.132;16.848;2023-10-09T08:40:34;5.38;;;2.38;;
21424;SDS011;10873;51.132;16.848;2023-10-09T08:43:09;6.22;;;2.42;;
21424;SDS011;10873;51.132;16.848;2023-10-09T08:45:36;4.15;;;2.47;;
21424;SDS011;10873;51.132;16.848;2023-10-09T08:48:04;5.05;;;2.22;;
21424;SDS011;10873;51.132;16.848;2023-10-09T08:50:33;7.10;;;2.60;;
21424;SDS011;10873;51.132;16.848;2023-10-09T08:53:00;6.47;;;2.30;;
21424;SDS011;10873;51.132;16.848;2023-10-09T08:55:28;3.22;;;2.20;;
21424;SDS011;10873;51.132;16.848;2023-10-09T08:57:58;4.28;;;2.30;;
21424;SDS011;10873;51.132;16.848;2023-10-09T09:00:24;10.93;;;3.20;;
21424;SDS011;10873;51.132;16.848;2023-10-09T09:02:50;5.13;;;2.25;;
21424;SDS011;10873;51.132;16.848;2023-10-09T09:05:19;5.72;;;2.22;;
21424;SDS011;10873;51.132;16.848;2023-10-09T09:07:47;4.68;;;2.33;;
21424;SDS011;10873;51.132;16.848;2023-10-09T09:10:27;4.32;;;1.85;;
21424;SDS011;10873;51.132;16.848;2023-10-09T09:13:03;4.38;;;2.45;;
21424;SDS011;10873;51.132;16.848;2023-10-09T09:15:30;5.47;;;2.60;;
21424;SDS011;10873;51.132;16.848;2023-10-09T09:18:03;3.65;;;1.98;;
21424;SDS011;10873;51.132;16.848;2023-10-09T09:20:34;3.42;;;1.90;;
21424;SDS011;10873;51.132;16.848;2023-10-09T09:23:12;3.53;;;1.88;;
21424;SDS011;10873;51.132;16.848;2023-10-09T09:25:39;4.28;;;2.20;;
21424;SDS011;10873;51.132;16.848;2023-10-09T09:28:25;5.70;;;1.95;;
21424;SDS011;10873;51.132;16.848;2023-10-09T09:31:06;5.20;;;2.03;;
21424;SDS011;10873;51.132;16.848;2023-10-09T09:33:38;7.00;;;3.03;;
21424;SDS011;10873;51.132;16.848;2023-10-09T09:36:10;7.63;;;3.00;;
21424;SDS011;10873;51.132;16.848;2023-10-09T09:38:41;15.52;;;3.50;;
21424;SDS011;10873;51.132;16.848;2023-10-09T09:41:07;11.38;;;3.65;;
21424;SDS011;10873;51.132;16.848;2023-10-09T09:43:34;13.25;;;4.20;;
21424;SDS011;10873;51.132;16.848;2023-10-09T09:46:06;11.38;;;4.20;;
21424;SDS011;10873;51.132;16.848;2023-10-09T09:48:34;19.05;;;5.13;;
21424;SDS011;10873;51.132;16.848;2023-10-09T09:51:05;22.02;;;5.10;;
21424;SDS011;10873;51.132;16.848;2023-10-09T09:53:33;18.70;;;5.57;;
21424;SDS011;10873;51.132;16.848;2023-10-09T09:56:01;17.08;;;5.10;;
21424;SDS011;10873;51.132;16.848;2023-10-09T09:58:29;17.63;;;4.75;;
21424;SDS011;10873;51.132;16.848;2023-10-09T10:01:08;20.23;;;5.50;;
21424;SDS011;10873;51.132;16.848;2023-10-09T10:03:49;14.93;;;5.00;;
21424;SDS011;10873;51.132;16.848;2023-10-09T10:06:18;17.02;;;4.40;;
21424;SDS011;10873;51.132;16.848;2023-10-09T10:08:47;16.63;;;5.07;;
21424;SDS011;10873;51.132;16.848;2023-10-09T10:14:09;14.98;;;5.22;;
21424;SDS011;10873;51.132;16.848;2023-10-09T10:22:50;16.05;;;4.10;;
21424;SDS011;10873;51.132;16.848;2023-10-09T10:25:32;14.68;;;4.20;;
21424;SDS011;10873;51.132;16.848;2023-10-09T10:28:18;11.93;;;4.22;;
21424;SDS011;10873;51.132;16.848;2023-10-09T10:30:53;10.18;;;3.58;;
21424;SDS011;10873;51.132;16.848;2023-10-09T10:33:20;11.05;;;4.07;;
21424;SDS011;10873;51.132;16.848;2023-10-09T10:35:51;6.13;;;3.42;;
21424;SDS011;10873;51.132;16.848;2023-10-09T10:38:27;10.05;;;4.03;;
21424;SDS011;10873;51.132;16.848;2023-10-09T10:41:10;10.98;;;3.80;;
21424;SDS011;10873;51.132;16.848;2023-10-09T10:43:42;13.73;;;3.90;;
21424;SDS011;10873;51.132;16.848;2023-10-09T10:46:18;8.45;;;3.58;;
21424;SDS011;10873;51.132;16.848;2023-10-09T10:49:03;7.30;;;3.13;;
21424;SDS011;10873;51.132;16.848;2023-10-09T10:51:46;9.15;;;3.85;;
21424;SDS011;10873;51.132;16.848;2023-10-09T10:54:48;8.27;;;3.58;;
21424;SDS011;10873;51.132;16.848;2023-10-09T10:57:40;10.80;;;3.55;;
21424;SDS011;10873;51.132;16.848;2023-10-09T11:00:20;9.65;;;3.47;;
21424;SDS011;10873;51.132;16.848;2023-10-09T11:03:05;6.32;;;3.22;;
21424;SDS011;10873;51.132;16.848;2023-10-09T11:05:46;11.00;;;3.33;;
21424;SDS011;10873;51.132;16.848;2023-10-09T11:08:23;8.48;;;3.30;;
21424;SDS011;10873;51.132;16.848;2023-10-09T11:11:09;8.30;;;3.45;;
21424;SDS011;10873;51.132;16.848;2023-10-09T11:13:41;10.32;;;3.72;;
21424;SDS011;10873;51.132;16.848;2023-10-09T11:16:32;6.43;;;3.10;;
21424;SDS011;10873;51.132;16.848;2023-10-09T11:19:08;8.00;;;3.10;;
21424;SDS011;10873;51.132;16.848;2023-10-09T11:21:49;8.40;;;2.85;;
21424;SDS011;10873;51.132;16.848;2023-10-09T11:24:24;11.35;;;3.28;;
21424;SDS011;10873;51.132;16.848;2023-10-09T11:26:53;6.07;;;2.60;;
21424;SDS011;10873;51.132;16.848;2023-10-09T11:29:22;8.30;;;3.10;;
21424;SDS011;10873;51.132;16.848;2023-10-09T11:32:02;8.07;;;3.00;;
21424;SDS011;10873;51.132;16.848;2023-10-09T11:34:34;8.50;;;3.35;;
21424;SDS011;10873;51.132;16.848;2023-10-09T11:37:12;5.70;;;2.55;;
21424;SDS011;10873;51.132;16.848;2023-10-09T11:39:40;7.57;;;3.00;;
21424;SDS011;10873;51.132;16.848;2023-10-09T11:42:18;9.02;;;3.22;;
21424;SDS011;10873;51.132;16.848;2023-10-09T11:45:01;5.63;;;2.83;;
21424;SDS011;10873;51.132;16.848;2023-10-09T11:47:35;7.97;;;2.83;;
21424;SDS011;10873;51.132;16.848;2023-10-09T11:50:01;7.20;;;2.70;;
21424;SDS011;10873;51.132;16.848;2023-10-09T11:52:27;6.47;;;2.80;;
21424;SDS011;10873;51.132;16.848;2023-10-09T11:54:56;6.78;;;2.47;;
21424;SDS011;10873;51.132;16.848;2023-10-09T11:57:24;5.13;;;2.50;;
21424;SDS011;10873;51.132;16.848;2023-10-09T11:59:56;7.03;;;2.65;;
21424;SDS011;10873;51.132;16.848;2023-10-09T12:02:23;6.15;;;2.50;;
21424;SDS011;10873;51.132;16.848;2023-10-09T12:04:51;5.10;;;2.45;;
21424;SDS011;10873;51.132;16.848;2023-10-09T12:07:21;6.78;;;2.33;;
21424;SDS011;10873;51.132;16.848;2023-10-09T12:10:09;5.22;;;2.60;;
21424;SDS011;10873;51.132;16.848;2023-10-09T12:12:39;7.07;;;2.75;;
21424;SDS011;10873;51.132;16.848;2023-10-09T12:15:05;4.88;;;2.60;;
21424;SDS011;10873;51.132;16.848;2023-10-09T12:17:32;6.60;;;2.97;;
21424;SDS011;10873;51.132;16.848;2023-10-09T12:20:00;4.60;;;2.47;;
21424;SDS011;10873;51.132;16.848;2023-10-09T12:22:29;5.07;;;2.47;;
21424;SDS011;10873;51.132;16.848;2023-10-09T12:24:56;4.60;;;2.28;;
21424;SDS011;10873;51.132;16.848;2023-10-09T12:27:22;7.53;;;2.33;;
21424;SDS011;10873;51.132;16.848;2023-10-09T12:29:48;5.43;;;2.63;;
21424;SDS011;10873;51.132;16.848;2023-10-09T12:32:15;4.88;;;2.20;;
21424;SDS011;10873;51.132;16.848;2023-10-09T12:38:15;4.50;;;2.25;;
21424;SDS011;10873;51.132;16.848;2023-10-09T12:40:47;6.30;;;2.63;;
21424;SDS011;10873;51.132;16.848;2023-10-09T12:43:24;6.13;;;2.72;;
21424;SDS011;10873;51.132;16.848;2023-10-09T12:45:53;5.15;;;2.30;;
21424;SDS011;10873;51.132;16.848;2023-10-09T12:48:22;6.13;;;2.28;;
21424;SDS011;10873;51.132;16.848;2023-10-09T12:50:49;4.60;;;2.15;;
21424;SDS011;10873;51.132;16.848;2023-10-09T12:53:20;4.05;;;2.53;;
21424;SDS011;10873;51.132;16.848;2023-10-09T12:55:46;4.57;;;2.00;;
21424;SDS011;10873;51.132;16.848;2023-10-09T12:58:15;4.35;;;2.15;;
21424;SDS011;10873;51.132;16.848;2023-10-09T13:00:43;4.35;;;2.33;;
21424;SDS011;10873;51.132;16.848;2023-10-09T13:03:15;5.65;;;2.40;;
21424;SDS011;10873;51.132;16.848;2023-10-09T13:05:44;4.63;;;2.10;;
21424;SDS011;10873;51.132;16.848;2023-10-09T13:08:32;5.15;;;2.25;;
21424;SDS011;10873;51.132;16.848;2023-10-09T13:11:02;3.88;;;2.25;;
21424;SDS011;10873;51.132;16.848;2023-10-09T13:13:42;8.93;;;2.50;;
21424;SDS011;10873;51.132;16.848;2023-10-09T13:16:10;6.40;;;2.20;;
21424;SDS011;10873;51.132;16.848;2023-10-09T13:18:39;4.20;;;2.38;;
21424;SDS011;10873;51.132;16.848;2023-10-09T13:21:05;3.22;;;2.00;;
21424;SDS011;10873;51.132;16.848;2023-10-09T13:23:33;3.05;;;2.03;;
21424;SDS011;10873;51.132;16.848;2023-10-09T13:26:05;4.05;;;1.85;;
21424;SDS011;10873;51.132;16.848;2023-10-09T13:28:52;3.50;;;1.98;;
21424;SDS011;10873;51.132;16.848;2023-10-09T13:31:18;4.32;;;1.77;;
21424;SDS011;10873;51.132;16.848;2023-10-09T13:33:46;3.90;;;1.88;;
21424;SDS011;10873;51.132;16.848;2023-10-09T13:36:19;2.80;;;1.73;;
21424;SDS011;10873;51.132;16.848;2023-10-09T13:39:01;4.05;;;2.05;;
21424;SDS011;10873;51.132;16.848;2023-10-09T13:41:48;3.83;;;1.80;;
21424;SDS011;10873;51.132;16.848;2023-10-09T13:44:19;6.47;;;2.05;;
21424;SDS011;10873;51.132;16.848;2023-10-09T13:46:44;6.00;;;2.20;;
21424;SDS011;10873;51.132;16.848;2023-10-09T13:49:11;6.50;;;1.95;;
21424;SDS011;10873;51.132;16.848;2023-10-09T13:51:43;4.55;;;2.30;;
21424;SDS011;10873;51.132;16.848;2023-10-09T13:54:11;3.92;;;2.20;;
21424;SDS011;10873;51.132;16.848;2023-10-09T13:56:45;4.00;;;2.10;;
21424;SDS011;10873;51.132;16.848;2023-10-09T13:59:12;3.47;;;2.10;;
21424;SDS011;10873;51.132;16.848;2023-10-09T14:01:38;7.28;;;2.70;;
21424;SDS011;10873;51.132;16.848;2023-10-09T14:04:05;3.80;;;2.25;;
21424;SDS011;10873;51.132;16.848;2023-10-09T14:06:32;4.05;;;2.20;;
21424;SDS011;10873;51.132;16.848;2023-10-09T14:09:00;4.63;;;2.20;;
21424;SDS011;10873;51.132;16.848;2023-10-09T14:11:31;8.43;;;2.10;;
21424;SDS011;10873;51.132;16.848;2023-10-09T14:13:57;3.40;;;2.38;;
21424;SDS011;10873;51.132;16.848;2023-10-09T14:16:26;4.03;;;2.20;;
21424;SDS011;10873;51.132;16.848;2023-10-09T14:18:54;3.60;;;2.17;;
21424;SDS011;10873;51.132;16.848;2023-10-09T14:21:25;5.05;;;2.13;;
21424;SDS011;10873;51.132;16.848;2023-10-09T14:23:53;4.20;;;2.20;;
21424;SDS011;10873;51.132;16.848;2023-10-09T14:26:23;3.95;;;2.03;;
21424;SDS011;10873;51.132;16.848;2023-10-09T14:28:54;3.72;;;2.10;;
21424;SDS011;10873;51.132;16.848;2023-10-09T14:31:22;4.72;;;2.50;;
21424;SDS011;10873;51.132;16.848;2023-10-09T14:33:52;4.15;;;2.33;;
21424;SDS011;10873;51.132;16.848;2023-10-09T14:36:21;4.25;;;2.25;;
21424;SDS011;10873;51.132;16.848;2023-10-09T14:41:30;4.28;;;2.58;;
21424;SDS011;10873;51.132;16.848;2023-10-09T14:44:06;5.00;;;2.08;;
21424;SDS011;10873;51.132;16.848;2023-10-09T14:46:35;4.03;;;2.50;;
21424;SDS011;10873;51.132;16.848;2023-10-09T14:49:01;5.32;;;2.97;;
21424;SDS011;10873;51.132;16.848;2023-10-09T14:51:27;7.88;;;3.88;;
21424;SDS011;10873;51.132;16.848;2023-10-09T14:53:54;5.43;;;3.20;;
21424;SDS011;10873;51.132;16.848;2023-10-09T14:56:23;10.85;;;3.63;;
21424;SDS011;10873;51.132;16.848;2023-10-09T14:58:55;8.90;;;5.03;;
21424;SDS011;10873;51.132;16.848;2023-10-09T15:01:25;13.13;;;6.97;;
21424;SDS011;10873;51.132;16.848;2023-10-09T15:03:57;12.68;;;5.95;;
21424;SDS011;10873;51.132;16.848;2023-10-09T15:08:52;10.20;;;5.32;;
21424;SDS011;10873;51.132;16.848;2023-10-09T15:11:34;14.07;;;8.63;;
21424;SDS011;10873;51.132;16.848;2023-10-09T15:14:07;16.67;;;7.88;;
21424;SDS011;10873;51.132;16.848;2023-10-09T15:16:35;10.00;;;6.00;;
21424;SDS011;10873;51.132;16.848;2023-10-09T15:19:05;13.55;;;6.28;;
21424;SDS011;10873;51.132;16.848;2023-10-09T15:21:31;11.27;;;5.90;;
21424;SDS011;10873;51.132;16.848;2023-10-09T15:23:59;10.13;;;4.93;;
21424;SDS011;10873;51.132;16.848;2023-10-09T15:26:25;11.07;;;5.32;;
21424;SDS011;10873;51.132;16.848;2023-10-09T15:29:01;16.08;;;6.22;;
21424;SDS011;10873;51.132;16.848;2023-10-09T15:31:32;14.88;;;6.50;;